createdAt,value
2024-01-29T00:01:17.199Z,88.24
2024-01-29T00:03:52.534Z,87.87
2024-01-29T00:06:20.817Z,88.21
2024-01-29T00:08:49.139Z,88.07
2024-01-29T00:11:17.818Z,88.18
2024-01-29T00:13:47.573Z,88.57
2024-01-29T00:16:16.038Z,88.18
2024-01-29T00:18:44.381Z,88.08
2024-01-29T00:21:14.330Z,88.03
2024-01-29T00:23:42.481Z,88.67
2024-01-29T00:26:11.006Z,88.48
2024-01-29T00:28:39.138Z,88.80
2024-01-29T00:31:08.684Z,88.78
2024-01-29T00:33:37.604Z,88.90
2024-01-29T00:36:06.109Z,88.54
2024-01-29T00:38:34.696Z,88.29
2024-01-29T00:41:02.818Z,88.68
2024-01-29T00:43:30.882Z,88.85
2024-01-29T00:45:59.201Z,88.70
2024-01-29T00:48:27.553Z,88.64
2024-01-29T00:50:57.097Z,88.98
2024-01-29T00:53:25.581Z,88.92
2024-01-29T00:55:55.237Z,89.02
2024-01-29T00:58:23.363Z,89.15
2024-01-29T01:00:52.400Z,88.51
2024-01-29T01:03:21.062Z,88.67
2024-01-29T01:05:49.691Z,88.77
2024-01-29T01:08:18.951Z,88.73
2024-01-29T01:10:47.399Z,88.58
2024-01-29T01:13:15.489Z,88.15
2024-01-29T01:15:43.661Z,88.07
2024-01-29T01:18:12.560Z,88.00
2024-01-29T01:20:40.952Z,88.23
2024-01-29T01:23:09.196Z,88.24
2024-01-29T01:25:37.684Z,88.33
2024-01-29T01:28:07.861Z,88.45
2024-01-29T01:30:36.117Z,88.23
2024-01-29T01:33:04.914Z,88.48
2024-01-29T01:35:33.071Z,88.47
2024-01-29T01:38:01.463Z,88.44
2024-01-29T01:40:29.606Z,88.17
2024-01-29T01:42:57.800Z,88.23
2024-01-29T01:45:26.095Z,88.51
2024-01-29T01:47:54.680Z,88.25
2024-01-29T01:50:23.406Z,88.54
2024-01-29T01:52:51.472Z,88.25
2024-01-29T01:55:19.756Z,88.02
2024-01-29T01:57:48.173Z,88.81
2024-01-29T02:00:17.434Z,88.05
2024-01-29T02:02:45.496Z,88.64
2024-01-29T02:05:13.953Z,88.08
2024-01-29T02:07:42.696Z,88.03
2024-01-29T02:10:11.432Z,87.83
2024-01-29T02:12:39.669Z,87.65
2024-01-29T02:15:09.657Z,87.71
2024-01-29T02:17:38.053Z,87.68
2024-01-29T02:20:08.205Z,87.53
2024-01-29T02:22:41.850Z,87.43
2024-01-29T02:25:10.178Z,87.81
2024-01-29T02:27:38.547Z,87.77
2024-01-29T02:30:07.435Z,87.74
2024-01-29T02:32:35.799Z,87.68
2024-01-29T02:35:04.657Z,87.64
2024-01-29T02:37:32.965Z,87.90
2024-01-29T02:40:01.174Z,87.96
2024-01-29T02:42:29.825Z,87.86
2024-01-29T02:44:58.095Z,87.72
2024-01-29T02:47:26.779Z,87.60
2024-01-29T02:49:55.156Z,88.41
2024-01-29T02:52:23.690Z,88.37
2024-01-29T02:54:51.928Z,88.45
2024-01-29T02:57:25.442Z,88.21
2024-01-29T02:59:55.008Z,88.41
2024-01-29T03:02:23.068Z,88.49
2024-01-29T03:04:51.480Z,88.42
2024-01-29T03:07:19.821Z,88.69
2024-01-29T03:09:48.024Z,88.20
2024-01-29T03:12:16.407Z,88.25
2024-01-29T03:14:44.558Z,88.22
2024-01-29T03:17:12.822Z,88.36
2024-01-29T03:19:41.675Z,88.12
2024-01-29T03:22:10.062Z,88.01
2024-01-29T03:24:38.403Z,88.36
2024-01-29T03:27:06.848Z,88.05
2024-01-29T03:29:34.966Z,88.20
2024-01-29T03:32:03.322Z,88.34
2024-01-29T03:34:31.529Z,88.49
2024-01-29T03:36:59.873Z,88.05
2024-01-29T03:39:28.182Z,88.32
2024-01-29T03:41:56.419Z,88.30
2024-01-29T03:44:24.784Z,88.56
2024-01-29T03:46:53.162Z,87.99
2024-01-29T03:49:21.529Z,88.58
2024-01-29T03:51:49.688Z,88.61
2024-01-29T03:54:17.885Z,88.57
2024-01-29T03:56:45.996Z,88.48
2024-01-29T03:59:14.351Z,88.80
2024-01-29T04:01:42.949Z,88.39
2024-01-29T04:04:12.535Z,88.49
2024-01-29T04:06:42.119Z,88.55
2024-01-29T04:09:10.942Z,89.04
2024-01-29T04:11:39.524Z,88.56
2024-01-29T04:14:07.574Z,88.93
2024-01-29T04:16:35.963Z,88.70
2024-01-29T04:19:04.136Z,88.69
2024-01-29T04:21:32.304Z,89.01
2024-01-29T04:24:00.535Z,88.72
2024-01-29T04:26:28.953Z,88.86
2024-01-29T04:28:57.116Z,89.02
2024-01-29T04:31:25.508Z,88.92
2024-01-29T04:33:53.822Z,89.07
2024-01-29T04:36:22.073Z,88.37
2024-01-29T04:38:50.877Z,88.44
2024-01-29T04:41:20.276Z,88.65
2024-01-29T04:43:48.423Z,88.63
2024-01-29T04:46:17.689Z,88.87
2024-01-29T04:48:46.189Z,88.90
2024-01-29T04:51:14.671Z,88.66
2024-01-29T04:53:43.258Z,88.52
2024-01-29T04:56:11.262Z,88.35
2024-01-29T04:58:39.510Z,88.44
2024-01-29T05:01:07.685Z,88.53
2024-01-29T05:03:36.421Z,88.67
2024-01-29T05:06:04.913Z,88.62
2024-01-29T05:08:33.117Z,88.12
2024-01-29T05:11:01.398Z,87.88
2024-01-29T05:13:29.742Z,87.69
2024-01-29T05:15:58.112Z,86.95
2024-01-29T05:18:26.476Z,87.04
2024-01-29T05:20:55.032Z,86.80
2024-01-29T05:23:23.281Z,86.83
2024-01-29T05:25:51.382Z,86.79
2024-01-29T05:28:20.014Z,86.59
2024-01-29T05:30:47.997Z,86.21
2024-01-29T05:33:25.273Z,86.21
2024-01-29T05:35:56.592Z,86.22
2024-01-29T05:38:26.269Z,86.16
2024-01-29T05:40:54.445Z,85.81
2024-01-29T05:43:22.907Z,86.28
2024-01-29T05:45:51.154Z,85.86
2024-01-29T05:48:20.940Z,85.68
2024-01-29T05:50:49.293Z,85.70
2024-01-29T05:53:21.666Z,85.48
2024-01-29T05:55:50.425Z,85.39
2024-01-29T05:58:18.991Z,85.48
2024-01-29T06:00:47.351Z,85.39
2024-01-29T06:03:15.660Z,85.19
2024-01-29T06:05:44.189Z,85.85
2024-01-29T06:08:12.465Z,85.35
2024-01-29T06:10:41.113Z,85.20
2024-01-29T06:13:09.713Z,85.03
2024-01-29T06:15:38.371Z,84.67
2024-01-29T06:18:07.490Z,85.11
2024-01-29T06:20:35.837Z,84.94
2024-01-29T06:23:04.765Z,85.09
2024-01-29T06:25:33.226Z,85.43
2024-01-29T06:28:01.645Z,84.98
2024-01-29T06:30:29.883Z,85.09
2024-01-29T06:32:58.810Z,84.84
2024-01-29T06:35:27.152Z,84.36
2024-01-29T06:37:55.428Z,84.47
2024-01-29T06:40:28.641Z,84.70
2024-01-29T06:42:58.406Z,83.79
2024-01-29T06:45:30.105Z,83.80
2024-01-29T06:47:59.540Z,84.07
2024-01-29T06:50:27.752Z,83.83
2024-01-29T06:52:56.113Z,84.04
2024-01-29T06:55:24.769Z,83.73
2024-01-29T06:57:53.046Z,83.42
2024-01-29T07:00:21.683Z,83.35
2024-01-29T07:02:49.881Z,83.51
2024-01-29T07:05:18.340Z,83.34
2024-01-29T07:07:46.588Z,83.52
2024-01-29T07:10:16.208Z,83.52
2024-01-29T07:12:44.651Z,83.21
2024-01-29T07:15:15.380Z,83.36
2024-01-29T07:17:43.629Z,83.35
2024-01-29T07:20:12.534Z,83.11
2024-01-29T07:22:41.012Z,82.96
2024-01-29T07:25:09.940Z,82.90
2024-01-29T07:27:38.349Z,82.62
2024-01-29T07:30:07.605Z,82.80
2024-01-29T07:32:35.910Z,82.55
2024-01-29T07:35:05.386Z,82.22
2024-01-29T07:37:34.122Z,82.47
2024-01-29T07:40:04.950Z,82.35
2024-01-29T07:42:33.692Z,82.65
2024-01-29T07:45:02.941Z,82.41
2024-01-29T07:47:31.282Z,82.64
2024-01-29T07:49:59.536Z,82.59
2024-01-29T07:52:27.976Z,82.65
2024-01-29T07:54:56.778Z,82.64
2024-01-29T07:57:26.637Z,83.01
2024-01-29T07:59:54.844Z,82.80
2024-01-29T08:02:23.207Z,83.14
2024-01-29T08:04:51.911Z,83.18
2024-01-29T08:07:20.408Z,83.32
2024-01-29T08:09:49.112Z,83.11
2024-01-29T08:12:17.352Z,83.42
2024-01-29T08:14:45.725Z,83.37
2024-01-29T08:17:14.026Z,83.37
2024-01-29T08:19:42.594Z,83.48
2024-01-29T08:22:10.972Z,83.48
2024-01-29T08:24:40.010Z,83.75
2024-01-29T08:27:08.241Z,83.70
2024-01-29T08:29:36.683Z,83.83
2024-01-29T08:32:05.723Z,83.65
2024-01-29T08:34:34.283Z,84.07
2024-01-29T08:37:02.690Z,84.26
2024-01-29T08:39:32.083Z,84.22
2024-01-29T08:42:00.606Z,84.19
2024-01-29T08:44:29.261Z,83.94
2024-01-29T08:46:57.433Z,84.11
2024-01-29T08:49:25.821Z,84.11
2024-01-29T08:51:54.053Z,84.11
2024-01-29T08:54:22.354Z,84.11
2024-01-29T08:56:50.521Z,83.98
2024-01-29T08:59:22.166Z,84.18
2024-01-29T09:01:50.676Z,84.31
2024-01-29T09:04:19.139Z,84.07
2024-01-29T09:06:47.343Z,84.14
2024-01-29T09:09:15.575Z,83.91
2024-01-29T09:11:44.161Z,83.66
2024-01-29T09:14:14.213Z,83.62
2024-01-29T09:16:42.367Z,83.44
2024-01-29T09:19:11.005Z,83.84
2024-01-29T09:21:39.606Z,83.63
2024-01-29T09:24:08.003Z,83.42
2024-01-29T09:26:36.164Z,82.98
2024-01-29T09:29:05.197Z,83.33
2024-01-29T09:31:34.132Z,82.90
2024-01-29T09:34:04.339Z,83.17
2024-01-29T09:36:33.132Z,82.98
2024-01-29T09:39:01.749Z,82.98
2024-01-29T09:41:35.006Z,83.21
2024-01-29T09:44:07.835Z,82.96
2024-01-29T09:46:39.293Z,82.98
2024-01-29T09:49:08.864Z,82.40
2024-01-29T09:51:37.416Z,82.52
2024-01-29T09:54:06.690Z,82.43
2024-01-29T09:56:34.847Z,82.24
2024-01-29T09:59:04.461Z,82.25
2024-01-29T10:01:33.874Z,82.04
2024-01-29T10:04:02.198Z,81.89
2024-01-29T10:06:33.553Z,82.22
2024-01-29T10:09:02.212Z,82.23
2024-01-29T10:11:31.250Z,82.42
2024-01-29T10:14:00.952Z,82.09
2024-01-29T10:16:29.581Z,82.02
2024-01-29T10:18:59.590Z,82.03
2024-01-29T10:21:28.644Z,82.00
2024-01-29T10:23:58.384Z,82.17
2024-01-29T10:26:28.191Z,81.88
2024-01-29T10:29:07.927Z,81.70
2024-01-29T10:31:37.317Z,81.65
2024-01-29T10:34:07.259Z,81.40
2024-01-29T10:36:40.184Z,81.34
2024-01-29T10:39:13.446Z,81.09
2024-01-29T10:41:44.344Z,80.60
2024-01-29T10:44:17.743Z,80.58
2024-01-29T10:46:48.677Z,80.52
2024-01-29T10:49:17.272Z,80.15
2024-01-29T10:51:49.268Z,80.11
2024-01-29T10:54:17.859Z,80.26
2024-01-29T10:56:46.237Z,80.27
2024-01-29T10:59:15.486Z,79.99
2024-01-29T11:01:52.208Z,79.69
2024-01-29T11:04:26.990Z,79.45
2024-01-29T11:07:06.007Z,79.42
2024-01-29T11:09:35.590Z,79.10
2024-01-29T11:12:06.615Z,79.16
2024-01-29T11:14:34.758Z,79.50
2024-01-29T11:17:02.937Z,78.95
2024-01-29T11:19:34.679Z,78.95
2024-01-29T11:22:02.978Z,79.11
2024-01-29T11:24:34.212Z,78.48
2024-01-29T11:27:13.666Z,78.46
2024-01-29T11:29:46.007Z,78.65
2024-01-29T11:32:17.261Z,78.61
2024-01-29T11:34:45.570Z,78.22
2024-01-29T11:37:16.327Z,78.63
2024-01-29T11:39:46.515Z,78.32
2024-01-29T11:42:16.011Z,78.07
2024-01-29T11:44:44.372Z,78.13
2024-01-29T11:47:12.540Z,77.85
2024-01-29T11:49:42.208Z,77.76
2024-01-29T11:52:11.950Z,77.53
2024-01-29T11:54:40.281Z,77.30
2024-01-29T11:57:08.726Z,77.24
2024-01-29T11:59:46.794Z,77.46
2024-01-29T12:02:15.275Z,77.36
2024-01-29T12:04:43.614Z,77.44
2024-01-29T12:07:12.556Z,77.32
2024-01-29T12:09:40.874Z,77.40
2024-01-29T12:12:09.943Z,77.43
2024-01-29T12:14:38.123Z,77.53
2024-01-29T12:17:08.065Z,77.54
2024-01-29T12:19:36.520Z,77.47
2024-01-29T12:22:05.761Z,77.30
2024-01-29T12:24:33.966Z,77.01
2024-01-29T12:27:02.299Z,76.97
2024-01-29T12:29:30.738Z,76.61
2024-01-29T12:32:07.754Z,76.55
2024-01-29T12:34:44.477Z,76.33
2024-01-29T12:37:22.881Z,76.54
2024-01-29T12:39:55.860Z,76.20
2024-01-29T12:42:30.346Z,76.22
2024-01-29T12:45:09.858Z,76.13
2024-01-29T12:47:38.395Z,76.09
2024-01-29T12:50:06.784Z,76.27
2024-01-29T12:52:35.133Z,76.10
2024-01-29T12:55:04.066Z,76.06
2024-01-29T12:57:32.388Z,75.91
2024-01-29T13:00:00.574Z,75.93
2024-01-29T13:02:29.212Z,76.00
2024-01-29T13:04:57.455Z,75.84
2024-01-29T13:07:26.814Z,76.02
2024-01-29T13:09:56.332Z,76.30
2024-01-29T13:12:24.494Z,76.36
2024-01-29T13:14:52.763Z,76.27
2024-01-29T13:17:20.768Z,76.01
2024-01-29T13:19:49.169Z,76.04
2024-01-29T13:22:17.365Z,76.16
2024-01-29T13:24:45.642Z,76.03
2024-01-29T13:27:14.676Z,75.86
2024-01-29T13:29:43.625Z,75.88
2024-01-29T13:32:11.799Z,75.70
2024-01-29T13:34:39.956Z,75.45
2024-01-29T13:37:08.405Z,75.70
2024-01-29T13:39:37.249Z,75.39
2024-01-29T13:42:05.826Z,75.50
2024-01-29T13:44:34.302Z,75.44
2024-01-29T13:47:02.413Z,75.42
2024-01-29T13:49:31.204Z,75.02
2024-01-29T13:51:59.388Z,75.07
2024-01-29T13:54:29.356Z,75.22
2024-01-29T13:56:57.750Z,75.30
2024-01-29T13:59:26.541Z,75.24
2024-01-29T14:01:54.839Z,75.40
2024-01-29T14:04:23.181Z,75.28
2024-01-29T14:07:02.697Z,75.20
2024-01-29T14:09:31.086Z,75.59
2024-01-29T14:11:59.547Z,75.39
2024-01-29T14:14:34.433Z,75.56
2024-01-29T14:17:08.943Z,75.71
2024-01-29T14:19:37.324Z,75.49
2024-01-29T14:22:05.856Z,75.72
2024-01-29T14:24:34.608Z,75.59
2024-01-29T14:27:02.866Z,75.54
2024-01-29T14:29:31.126Z,75.45
2024-01-29T14:31:59.318Z,75.72
2024-01-29T14:34:27.684Z,76.00
2024-01-29T14:36:56.063Z,76.09
2024-01-29T14:39:24.433Z,76.08
2024-01-29T14:41:53.319Z,75.96
2024-01-29T14:44:21.510Z,76.28
2024-01-29T14:46:49.823Z,76.16
2024-01-29T14:49:18.059Z,76.26
2024-01-29T14:51:47.400Z,76.45
2024-01-29T14:54:15.723Z,76.51
2024-01-29T14:56:44.217Z,76.42
2024-01-29T14:59:12.377Z,76.53
2024-01-29T15:01:41.501Z,76.45
2024-01-29T15:04:13.329Z,76.83
2024-01-29T15:06:42.221Z,76.76
2024-01-29T15:09:11.810Z,76.69
2024-01-29T15:11:40.156Z,76.83
2024-01-29T15:14:08.392Z,77.05
2024-01-29T15:16:36.768Z,77.18
2024-01-29T15:19:05.036Z,77.48
2024-01-29T15:21:33.273Z,77.28
2024-01-29T15:24:01.419Z,77.44
2024-01-29T15:26:30.115Z,77.44
2024-01-29T15:28:58.657Z,77.59
2024-01-29T15:31:32.142Z,77.79
2024-01-29T15:34:00.507Z,78.01
2024-01-29T15:36:28.938Z,78.14
2024-01-29T15:38:57.082Z,77.96
2024-01-29T15:41:25.876Z,78.44
2024-01-29T15:43:54.042Z,78.52
2024-01-29T15:46:23.204Z,78.54
2024-01-29T15:48:51.695Z,78.76
2024-01-29T15:51:23.610Z,78.65
2024-01-29T15:53:53.812Z,79.07
2024-01-29T15:56:21.905Z,79.06
2024-01-29T15:58:50.363Z,79.53
2024-01-29T16:01:18.462Z,79.50
2024-01-29T16:03:46.758Z,79.79
2024-01-29T16:06:15.323Z,79.70
2024-01-29T16:08:45.306Z,79.92
2024-01-29T16:11:13.621Z,80.03
2024-01-29T16:13:41.758Z,80.29
2024-01-29T16:16:14.801Z,80.27
2024-01-29T16:18:44.770Z,80.68
2024-01-29T16:21:19.916Z,81.01
2024-01-29T16:23:48.377Z,80.97
2024-01-29T16:26:20.953Z,81.18
2024-01-29T16:36:44.505Z,81.53
2024-01-29T16:39:12.765Z,81.49
2024-01-29T16:41:41.019Z,81.57
2024-01-29T16:44:12.111Z,81.66
2024-01-29T16:46:43.206Z,82.03
2024-01-29T16:49:11.392Z,82.27
2024-01-29T16:51:39.800Z,82.19
2024-01-29T16:54:08.026Z,82.03
2024-01-29T16:56:38.770Z,82.74
2024-01-29T16:59:09.062Z,82.05
2024-01-29T17:01:37.733Z,82.36
2024-01-29T17:04:06.227Z,82.66
2024-01-29T17:06:35.584Z,82.35
2024-01-29T17:09:04.141Z,82.95
2024-01-29T17:11:32.445Z,82.74
2024-01-29T17:14:01.168Z,82.94
2024-01-29T17:16:29.475Z,83.08
2024-01-29T17:18:57.878Z,83.16
2024-01-29T17:21:27.975Z,83.11
2024-01-29T17:23:56.696Z,83.17
2024-01-29T17:26:24.947Z,83.61
2024-01-29T17:28:54.669Z,83.50
2024-01-29T17:31:22.949Z,83.98
2024-01-29T17:33:51.683Z,84.08
2024-01-29T17:36:21.212Z,83.93
2024-01-29T17:38:49.489Z,83.91
2024-01-29T17:41:17.585Z,84.16
2024-01-29T17:43:46.929Z,84.45
2024-01-29T17:46:16.579Z,83.99
2024-01-29T17:48:45.000Z,84.38
2024-01-29T17:51:13.428Z,84.82
2024-01-29T17:53:41.593Z,84.65
2024-01-29T17:56:09.828Z,84.46
2024-01-29T17:58:38.053Z,85.24
2024-01-29T18:01:09.006Z,84.94
2024-01-29T18:03:37.422Z,85.04
2024-01-29T18:06:06.898Z,85.15
2024-01-29T18:08:37.118Z,85.25
2024-01-29T18:11:05.429Z,85.35
2024-01-29T18:13:33.659Z,85.33
2024-01-29T18:16:01.856Z,85.30
2024-01-29T18:18:30.166Z,85.37
2024-01-29T18:20:59.541Z,85.78
2024-01-29T18:23:27.619Z,85.48
2024-01-29T18:25:55.971Z,85.80
2024-01-29T18:28:24.298Z,85.74
2024-01-29T18:30:52.736Z,85.82
2024-01-29T18:33:21.082Z,86.03
2024-01-29T18:35:49.298Z,86.06
2024-01-29T18:38:17.521Z,86.39
2024-01-29T18:40:45.593Z,86.21
2024-01-29T18:43:14.013Z,86.23
2024-01-29T18:45:42.273Z,86.11
2024-01-29T18:48:10.478Z,86.49
2024-01-29T18:50:38.822Z,86.82
2024-01-29T18:53:07.692Z,86.71
2024-01-29T18:55:35.907Z,86.72
2024-01-29T18:58:04.616Z,87.07
2024-01-29T19:00:32.850Z,86.94
2024-01-29T19:03:01.591Z,87.19
2024-01-29T19:05:30.360Z,87.01
2024-01-29T19:07:58.591Z,87.17
2024-01-29T19:10:26.923Z,87.36
2024-01-29T19:12:55.710Z,87.24
2024-01-29T19:15:25.449Z,87.29
2024-01-29T19:17:53.650Z,87.36
2024-01-29T19:20:21.864Z,87.61
2024-01-29T19:22:50.458Z,87.46
2024-01-29T19:25:18.658Z,87.21
2024-01-29T19:27:47.684Z,87.70
2024-01-29T19:30:16.493Z,87.71
2024-01-29T19:32:44.711Z,87.62
2024-01-29T19:35:13.141Z,87.73
2024-01-29T19:37:41.572Z,87.89
2024-01-29T19:40:11.298Z,87.81
2024-01-29T19:42:39.854Z,88.10
2024-01-29T19:45:10.603Z,88.08
2024-01-29T19:47:38.796Z,88.07
2024-01-29T19:50:13.031Z,88.08
2024-01-29T19:52:41.204Z,87.95
2024-01-29T19:55:09.431Z,88.07
2024-01-29T19:57:39.117Z,88.02
2024-01-29T20:00:09.808Z,88.43
2024-01-29T20:02:39.942Z,88.22
2024-01-29T20:05:09.173Z,88.27
2024-01-29T20:07:38.006Z,88.38
2024-01-29T20:10:07.807Z,88.38
2024-01-29T20:12:35.995Z,88.44
2024-01-29T20:15:04.471Z,88.46
2024-01-29T20:17:32.654Z,88.32
2024-01-29T20:20:00.877Z,88.24
2024-01-29T20:22:30.093Z,88.39
2024-01-29T20:24:58.215Z,88.31
2024-01-29T20:27:26.647Z,88.38
2024-01-29T20:29:55.481Z,88.67
2024-01-29T20:32:26.471Z,88.64
2024-01-29T20:34:55.307Z,88.57
2024-01-29T20:37:23.718Z,88.65
2024-01-29T20:39:52.012Z,88.88
2024-01-29T20:42:20.402Z,88.65
2024-01-29T20:44:49.090Z,88.66
2024-01-29T20:47:17.185Z,88.74
2024-01-29T20:49:46.680Z,88.88
2024-01-29T20:52:14.914Z,88.83
2024-01-29T20:54:45.032Z,89.04
2024-01-29T20:57:13.652Z,89.09
2024-01-29T20:59:41.873Z,89.32
2024-01-29T21:02:13.349Z,89.51
2024-01-29T21:04:42.923Z,89.44
2024-01-29T21:07:11.511Z,89.51
2024-01-29T21:09:39.868Z,89.55
2024-01-29T21:12:08.382Z,89.67
2024-01-29T21:14:36.486Z,89.73
2024-01-29T21:17:05.609Z,89.86
2024-01-29T21:19:34.564Z,89.82
2024-01-29T21:22:03.332Z,89.86
2024-01-29T21:24:36.104Z,89.77
2024-01-29T21:27:04.854Z,89.67
2024-01-29T21:29:33.312Z,90.00
2024-01-29T21:32:01.398Z,89.98
2024-01-29T21:34:30.250Z,90.10
2024-01-29T21:36:59.826Z,90.31
2024-01-29T21:39:28.261Z,90.29
2024-01-29T21:41:56.535Z,90.33
2024-01-29T21:44:26.931Z,90.33
2024-01-29T21:46:55.648Z,90.55
2024-01-29T21:49:23.871Z,90.41
2024-01-29T21:51:53.647Z,90.60
2024-01-29T21:54:22.526Z,90.49
2024-01-29T21:56:50.627Z,90.58
2024-01-29T21:59:19.281Z,90.54
2024-01-29T22:01:47.692Z,90.71
2024-01-29T22:04:16.439Z,90.70
2024-01-29T22:06:45.186Z,90.90
2024-01-29T22:09:13.726Z,90.98
2024-01-29T22:11:41.780Z,90.98
2024-01-29T22:14:10.509Z,90.87
2024-01-29T22:16:38.849Z,90.91
2024-01-29T22:19:07.830Z,90.95
2024-01-29T22:21:36.553Z,90.89
2024-01-29T22:24:05.117Z,91.02
2024-01-29T22:26:33.377Z,91.03
2024-01-29T22:29:01.447Z,91.15
2024-01-29T22:31:29.671Z,90.97
2024-01-29T22:33:58.722Z,91.09
2024-01-29T22:36:29.358Z,91.10
2024-01-29T22:38:59.600Z,91.17
2024-01-29T22:41:28.177Z,91.34
2024-01-29T22:43:56.223Z,91.36
2024-01-29T22:46:24.448Z,91.38
2024-01-29T22:48:55.145Z,91.48
2024-01-29T22:51:27.846Z,91.48
2024-01-29T22:53:56.090Z,91.41
2024-01-29T22:56:24.392Z,91.62
2024-01-29T22:58:52.636Z,91.84
2024-01-29T23:01:21.745Z,91.61
2024-01-29T23:03:49.968Z,91.67
2024-01-29T23:06:18.418Z,91.83
2024-01-29T23:08:46.643Z,92.07
2024-01-29T23:11:14.757Z,92.12
2024-01-29T23:13:43.018Z,92.13
2024-01-29T23:16:11.849Z,92.11
2024-01-29T23:18:41.680Z,91.93
2024-01-29T23:21:10.023Z,91.96
2024-01-29T23:23:38.216Z,92.09
2024-01-29T23:26:06.457Z,92.19
2024-01-29T23:28:35.948Z,92.17
2024-01-29T23:31:04.308Z,92.09
2024-01-29T23:33:32.727Z,92.28
2024-01-29T23:36:00.987Z,92.28
2024-01-29T23:38:29.254Z,92.35
2024-01-29T23:40:58.273Z,92.40
2024-01-29T23:43:26.442Z,92.52
2024-01-29T23:45:54.697Z,92.48
2024-01-29T23:48:22.823Z,92.33
2024-01-29T23:50:51.162Z,92.33
2024-01-29T23:53:19.330Z,92.33
2024-01-29T23:55:48.312Z,92.67
2024-01-29T23:58:16.632Z,92.41
